Terminal Aerodrome Forecast
Issued by NWS

Home | Current Version | Previous Version | Text Only | Print | Product List | Glossary On
Versions: 1 2 3 4 5 6 7 8 9 10 11 12 13 14 15 16
707
FTUS42 KMLB 232057 AAC
TAFSFB
TAF AMD
KSFB 232057Z 2321/2418 05010KT P6SM FEW070 BKN100 BKN120
     FM240000 05009KT P6SM VCSH SCT030 BKN050 BKN250
     FM240600 02005KT P6SM SCT025 BKN060=

USA.gov is the U.S. government's official web portal to all federal, state and local government web resources and services.